Time;durP1;ratioP1;P1;durP2;ratioP2;P2;SDS_P1;SDS_P2;PMS_P1;PMS_P2;Temp;Humidity;BMP_temperature;BMP_pressure;BME280_temperature;BME280_humidity;BME280_pressure;Samples;Min_cycle;Max_cycle;Signal;HPM_P1;HPM_P2
2021/08/20 00:02:09;;;;;;;7.67;6.97;;;;;;;12.98;71.16;99410.05;531855;1087;116423;-65
2021/08/20 00:12:16;;;;;;;7.07;6.37;;;;;;;12.86;71.06;99424.17;532587;1088;117123;-65
2021/08/20 00:22:22;;;;;;;7.40;6.77;;;;;;;12.75;71.20;99431.09;532574;1088;115884;-64
2021/08/20 00:32:29;;;;;;;7.50;6.77;;;;;;;12.63;71.23;99431.17;531868;1088;116491;-64
2021/08/20 00:42:35;;;;;;;6.60;5.97;;;;;;;12.45;71.36;99419.27;532531;1089;117522;-64
2021/08/20 00:52:42;;;;;;;8.03;6.90;;;;;;;12.41;71.72;99416.98;531789;1089;117135;-63
2021/08/20 01:02:49;;;;;;;7.37;6.37;;;;;;;12.26;71.78;99417.17;532483;1089;116485;-63
2021/08/20 01:12:56;;;;;;;8.10;7.30;;;;;;;12.23;72.19;99413.92;530718;1088;117478;-62
2021/08/20 01:23:06;;;;;;;7.63;6.90;;;;;;;12.13;72.50;99414.63;530873;1088;116491;-63
2021/08/20 01:33:13;;;;;;;6.97;6.03;;;;;;;12.03;72.16;99421.51;527383;1087;116496;-62
2021/08/20 01:43:21;;;;;;;7.63;6.80;;;;;;;11.96;72.69;99428.13;532621;1089;117027;-65
2021/08/20 01:53:27;;;;;;;7.18;6.53;;;;;;;11.89;72.84;99433.84;531871;1089;116321;-63
2021/08/20 02:03:33;;;;;;;7.87;7.03;;;;;;;11.80;72.90;99444.17;532601;1087;115913;-63
2021/08/20 02:13:41;;;;;;;7.27;6.60;;;;;;;11.75;72.89;99433.98;531845;1087;116366;-62
2021/08/20 02:24:18;;;;;;;8.40;7.60;;;;;;;11.75;72.96;99427.48;465501;1213;601018;-61
2021/08/20 02:34:24;;;;;;;9.40;6.60;;;;;;;11.68;73.31;99420.27;471765;1197;141129;-61
2021/08/20 02:44:30;;;;;;;9.10;7.50;;;;;;;11.64;73.28;99421.44;470950;1196;140276;-61
2021/08/20 02:54:37;;;;;;;10.40;9.20;;;;;;;11.62;73.27;99418.75;471829;1192;141160;-61
2021/08/20 03:04:43;;;;;;;11.30;9.00;;;;;;;11.58;73.23;99421.14;470803;1198;141494;-61
2021/08/20 03:14:49;;;;;;;10.10;9.20;;;;;;;11.59;73.70;99414.56;471692;1196;142335;-61
2021/08/20 03:24:55;;;;;;;11.50;9.40;;;;;;;11.58;73.85;99418.34;471461;1198;141111;-60
2021/08/20 03:35:00;;;;;;;12.70;9.80;;;;;;;11.65;73.87;99422.41;470949;1196;141214;-61
2021/08/20 03:45:08;;;;;;;12.10;10.90;;;;;;;11.99;74.24;99420.84;472118;1196;140434;-61
2021/08/20 03:55:14;;;;;;;19.50;11.60;;;;;;;12.41;74.90;99415.00;466774;1196;141487;-60
2021/08/20 04:05:22;;;;;;;12.40;9.90;;;;;;;12.82;74.88;99413.43;470679;1196;141791;-61
2021/08/20 04:15:29;;;;;;;16.80;9.30;;;;;;;13.09;74.76;99411.35;472554;1194;141180;-60
2021/08/20 04:25:35;;;;;;;14.60;10.50;;;;;;;13.31;74.48;99420.36;471775;1194;141120;-60
2021/08/20 04:35:42;;;;;;;10.70;8.80;;;;;;;13.57;74.49;99426.30;472050;1195;141445;-60
2021/08/20 04:45:49;;;;;;;9.00;7.80;;;;;;;13.83;74.50;99428.48;472336;1194;140945;-60
2021/08/20 04:55:55;;;;;;;8.80;7.80;;;;;;;14.02;74.43;99431.89;471458;1194;142575;-61
2021/08/20 05:06:01;;;;;;;8.80;7.50;;;;;;;14.18;74.44;99434.29;472610;1194;142220;-62
2021/08/20 05:16:08;;;;;;;8.30;7.50;;;;;;;14.36;74.38;99437.38;472597;1194;142246;-62
2021/08/20 05:26:14;;;;;;;8.40;7.30;;;;;;;14.58;74.33;99447.55;471858;1194;141748;-62
2021/08/20 05:36:22;;;;;;;10.60;8.00;;;;;;;14.81;74.13;99451.17;472781;1191;140521;-62
2021/08/20 05:46:28;;;;;;;7.60;6.90;;;;;;;15.04;73.98;99454.73;472010;1185;140912;-61
2021/08/20 05:56:34;;;;;;;10.00;7.70;;;;;;;15.29;73.88;99463.15;472527;1194;141671;-61
2021/08/20 06:06:40;;;;;;;9.90;7.80;;;;;;;15.50;73.64;99467.92;472612;1194;141471;-62
2021/08/20 06:16:46;;;;;;;13.40;8.10;;;;;;;15.80;73.50;99464.09;471272;1195;198385;-62
2021/08/20 06:26:52;;;;;;;12.50;7.10;;;;;;;16.20;73.25;99467.13;472924;1191;142257;-62
2021/08/20 06:36:59;;;;;;;15.30;6.90;;;;;;;16.62;72.73;99466.90;472695;1194;140605;-62
2021/08/20 06:47:05;;;;;;;9.40;6.30;;;;;;;17.05;72.09;99473.11;471982;1195;141908;-62
2021/08/20 06:57:12;;;;;;;8.10;7.20;;;;;;;17.45;71.57;99478.72;472053;1195;143824;-62
2021/08/20 07:07:18;;;;;;;6.60;5.80;;;;;;;17.96;70.91;99472.02;471966;1195;140531;-64
2021/08/20 07:17:24;;;;;;;6.00;5.40;;;;;;;18.61;69.92;99476.45;472138;1185;141075;-63
2021/08/20 07:27:30;;;;;;;4.40;4.00;;;;;;;19.43;68.64;99479.46;471978;1195;142135;-60
2021/08/20 07:37:36;;;;;;;4.90;4.30;;;;;;;20.56;66.46;99475.53;471978;1194;141164;-60
2021/08/20 07:47:48;;;;;;;6.50;4.00;;;;;;;21.65;64.43;99476.65;472847;1194;141344;-62
2021/08/20 07:57:56;;;;;;;7.30;4.10;;;;;;;22.48;62.21;99480.98;472864;1185;140489;-65
2021/08/20 08:08:02;;;;;;;10.20;5.30;;;;;;;22.80;60.36;99481.91;472236;1191;141403;-61
2021/08/20 08:18:08;;;;;;;5.80;4.20;;;;;;;23.45;59.35;99488.95;472812;1195;141384;-60
2021/08/20 08:28:14;;;;;;;7.80;3.90;;;;;;;24.75;57.37;99491.16;472846;1195;140538;-58
2021/08/20 08:38:20;;;;;;;7.60;4.30;;;;;;;25.87;55.19;99484.55;471957;1195;140928;-58
2021/08/20 08:48:27;;;;;;;3.40;3.10;;;;;;;26.50;52.93;99486.88;473188;1182;140260;-58
2021/08/20 08:58:33;;;;;;;5.70;3.30;;;;;;;26.82;51.49;99483.38;473333;1190;139642;-57
2021/08/20 09:08:40;;;;;;;4.70;3.30;;;;;;;27.03;50.01;99483.54;473081;1194;141220;-59
2021/08/20 09:18:47;;;;;;;6.30;3.00;;;;;;;26.45;49.48;99486.79;473149;1194;140275;-74
2021/08/20 09:28:53;;;;;;;8.70;3.70;;;;;;;26.33;49.46;99492.58;472439;1191;140191;-57
2021/08/20 09:38:59;;;;;;;3.70;3.40;;;;;;;26.25;49.19;99494.25;473141;1194;141138;-59
2021/08/20 09:49:06;;;;;;;3.30;2.90;;;;;;;26.35;48.64;99488.63;473100;1195;140665;-58
2021/08/20 09:59:13;;;;;;;4.50;3.40;;;;;;;26.28;48.21;99483.95;472278;1194;140838;-59
2021/08/20 10:09:20;;;;;;;3.80;3.50;;;;;;;26.26;47.89;99482.54;473042;1194;140807;-60
2021/08/20 10:19:25;;;;;;;;;;;;;;;26.34;47.50;99485.58;473063;1194;140887;-60
2021/08/20 10:29:34;;;;;;;9.90;3.90;;;;;;;25.99;47.48;99486.47;472641;1195;127633;-61
2021/08/20 10:39:41;;;;;;;3.60;3.30;;;;;;;25.80;47.77;99484.29;473078;1193;140174;-61
2021/08/20 10:49:49;;;;;;;5.60;3.80;;;;;;;26.07;47.53;99484.17;472291;1195;140147;-61
2021/08/20 10:59:58;;;;;;;4.40;2.90;;;;;;;26.43;47.16;99482.81;473107;1195;141095;-61
2021/08/20 11:10:33;;;;;;;5.70;3.00;;;;;;;26.67;46.86;99479.48;473094;1194;141438;-61
2021/08/20 11:20:40;;;;;;;7.30;3.60;;;;;;;26.91;45.69;99473.77;473144;1195;140743;-61
2021/08/20 11:30:56;;;;;;;3.20;2.60;;;;;;;26.86;45.45;99473.05;473298;1189;140121;-61
2021/08/20 11:41:05;;;;;;;4.10;2.80;;;;;;;26.76;45.13;99468.08;472343;1194;140036;-61
2021/08/20 11:51:30;;;;;;;3.20;2.90;;;;;;;26.73;45.16;99462.65;473057;1194;140514;-61
2021/08/20 12:01:35;;;;;;;;;;;;;;;26.61;45.18;99465.89;472166;1194;161910;-70
2021/08/20 12:11:43;;;;;;;3.70;3.30;;;;;;;26.32;45.13;99461.48;473223;1194;127226;-73
2021/08/20 12:21:51;;;;;;;4.30;3.00;;;;;;;25.71;45.43;99451.81;473113;1189;140483;-67
2021/08/20 12:31:58;;;;;;;3.00;2.30;;;;;;;25.10;45.67;99440.99;472422;1182;140790;-61
2021/08/20 12:42:26;;;;;;;2.50;1.90;;;;;;;25.19;45.63;99433.16;473003;1194;140362;-62
2021/08/20 12:52:32;;;;;;;4.10;1.90;;;;;;;25.36;45.18;99432.30;473064;1194;141275;-66
2021/08/20 13:02:38;;;;;;;5.50;2.60;;;;;;;25.32;45.05;99423.88;473297;1182;140041;-64
2021/08/20 13:12:45;;;;;;;3.00;2.40;;;;;;;25.49;45.12;99423.02;473115;1194;140471;-61
2021/08/20 13:22:51;;;;;;;6.60;2.70;;;;;;;25.01;45.29;99425.66;472261;1194;140046;-70
2021/08/20 13:32:57;;;;;;;4.20;2.50;;;;;;;24.72;45.81;99429.29;473016;1194;140347;-61
2021/08/20 13:43:09;;;;;;;8.70;2.50;;;;;;;24.65;46.10;99422.30;472824;1195;140663;-57
2021/08/20 13:53:15;;;;;;;5.30;2.70;;;;;;;24.69;46.33;99414.81;472263;1194;139862;-62
2021/08/20 14:03:22;;;;;;;6.20;2.80;;;;;;;24.57;46.90;99404.52;473291;1192;140004;-60
2021/08/20 14:13:29;;;;;;;4.90;2.00;;;;;;;24.65;47.44;99405.27;473159;1182;140047;-60
2021/08/20 14:23:35;;;;;;;4.60;2.90;;;;;;;24.91;47.27;99405.80;473028;1194;141418;-62
2021/08/20 14:33:42;;;;;;;4.60;2.70;;;;;;;24.47;47.35;99407.59;472920;1194;140327;-61
2021/08/20 14:43:47;;;;;;;10.60;3.10;;;;;;;23.76;48.25;99410.89;472208;1189;142216;-62
2021/08/20 14:53:54;;;;;;;3.40;2.90;;;;;;;23.42;49.54;99414.38;456890;1194;20002039;-61
2021/08/20 15:04:00;;;;;;;2.50;2.30;;;;;;;22.90;51.48;99422.64;458061;1194;140425;-63
2021/08/20 15:14:07;;;;;;;3.60;2.80;;;;;;;22.21;53.09;99424.34;457929;1194;142469;-61
2021/08/20 15:24:34;;;;;;;8.50;4.70;;;;;;;21.36;55.15;99446.15;457790;1194;139892;-61
2021/08/20 15:34:41;;;;;;;4.00;3.60;;;;;;;20.62;57.12;99455.13;456955;1195;140615;-61
2021/08/20 15:44:48;;;;;;;4.30;3.90;;;;;;;20.14;59.09;99458.25;456633;1200;140817;-58
2021/08/20 15:54:54;;;;;;;4.10;3.80;;;;;;;19.73;60.52;99431.64;458005;1195;142260;-60
2021/08/20 16:05:00;;;;;;;4.50;4.20;;;;;;;19.46;61.60;99433.77;455767;1195;141508;-69
2021/08/20 16:15:08;;;;;;;6.20;3.50;;;;;;;19.38;62.77;99442.88;463761;1193;141777;-64
2021/08/20 16:25:15;;;;;;;5.80;4.50;;;;;;;19.21;63.62;99457.55;466425;1194;140916;-66
2021/08/20 16:35:21;;;;;;;11.30;6.30;;;;;;;19.05;65.02;99489.70;471284;1194;140565;-66
2021/08/20 16:45:27;;;;;;;4.70;4.30;;;;;;;18.49;66.17;99519.30;464860;1193;141676;-64
2021/08/20 16:55:33;;;;;;;3.50;2.50;;;;;;;17.61;67.76;99529.08;470928;1182;141717;-70
2021/08/20 17:05:40;;;;;;;2.80;2.40;;;;;;;16.78;68.85;99528.94;463156;1194;141448;-65
2021/08/20 17:15:45;;;;;;;3.20;2.90;;;;;;;16.37;69.61;99534.15;472814;1194;140657;-64
2021/08/20 17:25:51;;;;;;;3.10;2.80;;;;;;;16.26;70.30;99537.65;471848;1193;141183;-64
2021/08/20 17:35:57;;;;;;;2.90;2.50;;;;;;;16.10;70.78;99531.81;472920;1182;141410;-70
2021/08/20 17:46:03;;;;;;;3.80;3.20;;;;;;;15.91;71.48;99522.13;471152;1193;140822;-69
2021/08/20 17:56:09;;;;;;;6.10;3.90;;;;;;;15.76;72.33;99550.08;471651;1194;141021;-72
2021/08/20 18:06:15;;;;;;;4.40;4.00;;;;;;;15.79;72.78;99551.20;472799;1193;141521;-67
2021/08/20 18:16:21;;;;;;;4.10;3.40;;;;;;;15.76;73.13;99536.14;472965;1189;140691;-69
2021/08/20 18:26:27;;;;;;;5.90;4.50;;;;;;;15.67;73.56;99547.81;467656;1193;141442;-65
2021/08/20 18:36:33;;;;;;;4.80;4.30;;;;;;;15.47;74.41;99579.09;464402;1193;144059;-63
2021/08/20 18:46:39;;;;;;;5.10;4.10;;;;;;;15.47;75.00;99589.39;464090;1193;10001810;-69
2021/08/20 18:56:45;;;;;;;6.60;5.70;;;;;;;15.57;75.20;99588.31;472896;1193;141037;-65
2021/08/20 19:06:52;;;;;;;;;;;;;;;15.67;75.41;99596.01;471489;1193;141037;-67
2021/08/20 19:16:57;;;;;;;6.30;5.20;;;;;;;15.75;75.51;99591.06;461405;1193;129237;-67
2021/08/20 19:27:05;;;;;;;5.80;5.30;;;;;;;15.74;75.12;99597.54;472753;1193;141245;-67
2021/08/20 19:37:10;;;;;;;5.80;5.10;;;;;;;15.65;75.18;99595.46;470957;1193;142326;-66
2021/08/20 19:47:16;;;;;;;6.20;5.70;;;;;;;15.43;75.39;99594.67;464157;1194;141621;-64
2021/08/20 19:57:22;;;;;;;8.00;6.90;;;;;;;15.27;75.79;99591.00;467355;1193;141647;-67
2021/08/20 20:07:28;;;;;;;6.10;5.60;;;;;;;15.09;76.15;99589.67;466289;1193;140173;-67
2021/08/20 20:17:34;;;;;;;7.10;6.40;;;;;;;14.82;76.23;99585.36;462024;1193;140978;-64
2021/08/20 20:27:40;;;;;;;7.90;6.20;;;;;;;14.53;76.75;99595.36;458097;1193;141273;-67
2021/08/20 20:37:46;;;;;;;9.00;8.20;;;;;;;14.31;77.34;99604.02;467503;1193;141404;-65
2021/08/20 20:47:53;;;;;;;7.70;7.00;;;;;;;14.12;77.52;99611.36;456839;1195;141316;-71
2021/08/20 20:57:59;;;;;;;7.20;6.50;;;;;;;13.94;78.07;99619.59;457666;1195;140778;-65
2021/08/20 21:08:06;;;;;;;11.80;10.20;;;;;;;13.87;78.22;99623.95;462528;1194;142145;-65
2021/08/20 21:18:12;;;;;;;12.20;10.60;;;;;;;13.80;78.51;99628.95;461737;1193;141441;-65
2021/08/20 21:28:18;;;;;;;12.80;10.80;;;;;;;13.72;78.78;99632.36;463170;1193;141459;-64
2021/08/20 21:38:24;;;;;;;11.90;10.70;;;;;;;13.61;78.85;99635.66;457676;1195;140978;-67
2021/08/20 21:48:30;;;;;;;12.20;10.80;;;;;;;13.57;79.13;99652.31;459566;1194;141394;-64
2021/08/20 21:58:36;;;;;;;12.40;10.00;;;;;;;13.43;79.06;99654.91;465048;1194;162741;-64
2021/08/20 22:08:42;;;;;;;11.90;9.50;;;;;;;13.31;79.38;99658.71;467902;1193;141760;-64
2021/08/20 22:18:47;;;;;;;11.30;8.10;;;;;;;13.17;79.17;99665.91;460038;1193;142059;-65
2021/08/20 22:28:53;;;;;;;9.60;8.70;;;;;;;12.97;79.17;99664.92;456328;1195;141101;-67
2021/08/20 22:38:59;;;;;;;8.80;7.00;;;;;;;12.75;79.46;99674.75;466785;1193;140392;-66
2021/08/20 22:49:05;;;;;;;9.50;8.60;;;;;;;12.61;79.70;99675.52;460597;1195;141492;-66
2021/08/20 22:59:11;;;;;;;10.60;7.50;;;;;;;12.56;79.81;99677.85;461012;1195;141498;-68
2021/08/20 23:09:17;;;;;;;9.10;8.20;;;;;;;12.45;79.93;99676.50;460434;1194;142249;-70
2021/08/20 23:19:23;;;;;;;11.50;8.40;;;;;;;12.51;80.35;99669.59;458413;1194;140881;-69
2021/08/20 23:29:28;;;;;;;12.40;9.70;;;;;;;12.83;80.79;99666.79;463747;1194;141716;-65
2021/08/20 23:39:34;;;;;;;10.30;9.20;;;;;;;13.09;81.09;99665.78;473037;1194;141641;-68
2021/08/20 23:49:40;;;;;;;9.40;8.50;;;;;;;13.27;81.31;99672.42;472211;1194;141523;-60
2021/08/20 23:59:46;;;;;;;10.00;9.00;;;;;;;13.47;81.19;99672.87;467742;1194;140919;-63
